joomla templates top joomla templates template joomla

King Air Abend

Wetterbeurteilung mit Hilfe Webcam und ATIS

 

Webcam 1Webcam 2

(Zum vergrößern auf das Bild klicken)

Notam

C1109/18 - ATIS NOT AVBL. 24 APR 14:36 2018 UNTIL 24 JUL 23:59 2018 ESTIMATED. CREATED: 24 APR 14:43 2018

C0137/18 - COBURG AFIS AND INFO FREQ CHANGED: NEW FREQ 128.680. 15 FEB 00:01 2018 UNTIL PERM. CREATED: 19 JAN 11:19 2018

C0132/18 - DIRECTION FINDING STATION (VDF) COMPLETELY WITHDRAWN. 15 FEB 00:01 2018 UNTIL PERM. CREATED: 19 JAN 10:58 2018

C3641/14 - CUSTOMS AVBL PPR, TEL 0049 9561 92098. 13 NOV 14:46 2014 UNTIL PERM. CREATED: 13 NOV 14:47 2014

Wetteranzeige

Aktuelles Platzwetter Stand 22.05.2018 19:10Z

AvgMinMax
Windrichtung502080Deg
Windgeschwindigkeit326kt
Sichtweite>10000m
Temperatur20°C
Taupunkt/////°C
Feuchte/////%
QNH1014.0hPa
QFE960.6hPa
WolkenSKC

Aerodrome Terminal Information Service (ATIS) Coburg

METAR
EDQC 221850Z AUTO 05004KT 020V090 CAVOK 21/// Q1013=

METAR und TAF der Umgebung

[Quelle: ADDS]
METAR
EDDF 221850Z 02013KT 350V050 9999 -SHRA FEW016 SCT040CB BKN130 18/13 Q1014 RETS TEMPO SHRA =
EDDN 221850Z 03003KT CAVOK 22/09 Q1012 NOSIG =
EDDE 221850Z 01003KT CAVOK 18/10 Q1014 NOSIG =
TAF
EDDF 221700Z 2218/2324 03006KT 9999 SCT040 PROB30 TEMPO 2218/2222 15012KT TSRA BKN040CB PROB30 TEMPO 2311/2318 06015G25KT TSRA BKN040CB =
EDDN 221700Z 2218/2318 04003KT CAVOK BECMG 2306/2308 07008KT PROB40 TEMPO 2313/2318 15020G30KT TSRA BKN040CB =
EDDE 221700Z 2218/2318 07006KT CAVOK BECMG 2308/2310 05011KT BECMG 2316/2318 05006KT =

Wetterverlauf

Windvorhersage

Verkehrslandeplatz Coburg Brandensteinsebene
Tower
Zur Brandensteinsebene
96450 Coburg

 

Telefon +49 (0) 95 61 / 9 20 98
Telefax +49 (0) 95 61 / 9 20 06
EMail tower@vlp-coburg.de